Time;durP1;ratioP1;P1;durP2;ratioP2;P2;SDS_P1;SDS_P2;PMS_P1;PMS_P2;Temp;Humidity;BMP_temperature;BMP_pressure;BME280_temperature;BME280_humidity;BME280_pressure;Samples;Min_cycle;Max_cycle;Signal;HPM_P1;HPM_P2
2022/12/04 00:01:05;;;;;;;26.08;13.10;;;0.70;99.90;;;;;;5108960;28;20076;-67
2022/12/04 00:03:31;;;;;;;26.20;13.40;;;0.70;99.90;;;;;;5116613;28;20372;-66
2022/12/04 00:06:15;;;;;;;23.30;13.75;;;0.70;99.90;;;;;;5119303;28;20043;-67
2022/12/04 00:08:42;;;;;;;24.65;12.52;;;0.70;99.90;;;;;;5078735;28;20128;-66
2022/12/04 00:11:09;;;;;;;25.17;13.02;;;0.70;99.90;;;;;;5032582;28;20105;-66
2022/12/04 00:13:36;;;;;;;25.42;12.90;;;0.70;99.90;;;;;;5036887;28;20053;-67
2022/12/04 00:16:12;;;;;;;24.23;13.55;;;0.70;99.90;;;;;;5116547;28;20058;-67
2022/12/04 00:18:37;;;;;;;23.90;12.88;;;0.70;99.90;;;;;;5118419;28;20055;-67
2022/12/04 00:21:05;;;;;;;25.20;12.98;;;0.60;99.90;;;;;;5117746;28;20851;-66
2022/12/04 00:23:32;;;;;;;23.65;13.02;;;0.60;99.90;;;;;;5092251;28;20829;-67
2022/12/04 00:26:02;;;;;;;24.17;12.68;;;0.70;99.90;;;;;;4997497;28;20574;-66
2022/12/04 00:28:28;;;;;;;24.08;13.43;;;0.60;99.90;;;;;;4994420;28;20056;-66
2022/12/04 00:30:54;;;;;;;23.67;12.68;;;0.60;99.90;;;;;;4996032;28;20074;-66
2022/12/04 00:33:20;;;;;;;27.80;14.98;;;0.60;99.90;;;;;;4998194;28;20050;-67
2022/12/04 00:35:46;;;;;;;26.58;13.27;;;0.60;99.90;;;;;;5012293;28;20084;-66
2022/12/04 00:38:12;;;;;;;22.58;12.52;;;0.70;99.90;;;;;;5015067;28;20046;-66
2022/12/04 00:40:37;;;;;;;26.67;12.88;;;0.60;99.90;;;;;;5001987;28;20050;-67
2022/12/04 00:43:03;;;;;;;25.77;12.65;;;0.70;99.90;;;;;;5004067;28;20042;-66
2022/12/04 00:45:29;;;;;;;24.08;13.30;;;0.70;99.90;;;;;;4993007;28;20053;-66
2022/12/04 00:47:54;;;;;;;24.70;13.32;;;0.70;99.90;;;;;;5041748;28;20502;-66
2022/12/04 00:50:20;;;;;;;25.80;13.73;;;0.70;99.90;;;;;;5003772;28;20040;-68
2022/12/04 00:52:46;;;;;;;28.80;13.70;;;0.60;99.90;;;;;;4994298;28;20042;-67
2022/12/04 00:55:12;;;;;;;25.67;13.60;;;0.80;99.90;;;;;;5020187;28;20117;-67
2022/12/04 00:57:38;;;;;;;25.13;12.82;;;0.70;99.90;;;;;;4993929;28;20047;-66
2022/12/04 01:00:05;;;;;;;25.50;13.50;;;0.70;99.90;;;;;;5001730;28;20106;-67
2022/12/04 01:02:32;;;;;;;25.45;13.35;;;0.70;99.90;;;;;;5021695;28;20071;-66
2022/12/04 01:05:01;;;;;;;26.25;14.10;;;0.70;99.90;;;;;;5033217;28;20031;-66
2022/12/04 01:07:27;;;;;;;26.38;15.02;;;0.70;99.90;;;;;;5006248;28;20564;-67
2022/12/04 01:09:52;;;;;;;24.63;13.13;;;0.70;99.90;;;;;;5003944;28;20042;-67
2022/12/04 01:12:18;;;;;;;24.85;12.95;;;0.70;99.90;;;;;;4999366;28;20062;-67
2022/12/04 01:14:43;;;;;;;27.88;13.20;;;0.70;99.90;;;;;;5033136;28;20042;-66
2022/12/04 01:17:09;;;;;;;26.17;13.32;;;0.70;99.90;;;;;;4994652;28;20068;-67
2022/12/04 01:19:35;;;;;;;25.42;14.65;;;0.70;99.90;;;;;;5008243;28;20057;-67
2022/12/04 01:22:02;;;;;;;26.48;13.88;;;0.70;99.90;;;;;;4997098;28;20536;-67
2022/12/04 01:24:28;;;;;;;26.25;13.38;;;0.60;99.90;;;;;;5007574;28;20091;-66
2022/12/04 01:26:53;;;;;;;23.75;13.65;;;0.60;99.90;;;;;;5002552;28;20038;-66
2022/12/04 01:29:19;;;;;;;25.85;13.23;;;0.70;99.90;;;;;;4996798;28;20057;-67
2022/12/04 01:31:45;;;;;;;29.08;13.73;;;0.70;99.90;;;;;;4996230;28;20061;-66
2022/12/04 01:34:11;;;;;;;26.58;13.75;;;0.70;99.90;;;;;;4993635;28;20080;-66
2022/12/04 01:36:36;;;;;;;24.98;13.57;;;0.60;99.90;;;;;;4996737;28;20042;-66
2022/12/04 01:39:02;;;;;;;27.48;14.55;;;0.60;99.90;;;;;;4978270;28;20038;-66
2022/12/04 01:41:31;;;;;;;27.15;12.75;;;0.60;99.90;;;;;;4991096;28;20098;-66
2022/12/04 01:44:17;;;;;;;26.77;14.45;;;0.60;99.90;;;;;;5008583;28;20050;-67
2022/12/04 01:46:54;;;;;;;26.20;14.13;;;0.70;99.90;;;;;;4994207;28;20130;-66
2022/12/04 01:49:41;;;;;;;25.10;13.30;;;0.70;99.90;;;;;;4991429;28;20064;-67
2022/12/04 01:52:14;;;;;;;24.90;12.93;;;0.70;99.90;;;;;;4995407;28;20073;-66
2022/12/04 01:54:43;;;;;;;26.95;13.43;;;0.60;99.90;;;;;;5006873;28;20057;-66
2022/12/04 01:57:17;;;;;;;25.25;12.95;;;0.60;99.90;;;;;;5002440;28;20046;-66
2022/12/04 01:59:48;;;;;;;25.25;14.00;;;0.70;99.90;;;;;;4994456;28;20046;-66
2022/12/04 02:02:18;;;;;;;23.85;12.55;;;0.60;99.90;;;;;;5001120;28;20034;-66
2022/12/04 02:04:44;;;;;;;25.10;13.07;;;0.70;99.90;;;;;;5092669;28;20049;-66
2022/12/04 02:07:10;;;;;;;25.63;13.40;;;0.90;99.90;;;;;;4996438;28;20121;-66
2022/12/04 02:09:41;;;;;;;26.13;13.13;;;0.60;99.90;;;;;;4994149;28;20085;-66
2022/12/04 02:12:35;;;;;;;24.98;13.57;;;0.60;99.90;;;;;;5077464;28;20046;-66
2022/12/04 02:15:33;;;;;;;27.40;15.70;;;0.60;99.90;;;;;;4996659;28;20068;-66
2022/12/04 02:18:20;;;;;;;25.02;13.68;;;0.60;99.90;;;;;;4992388;28;20132;-66
2022/12/04 02:21:09;;;;;;;26.85;14.25;;;0.60;99.90;;;;;;4996151;28;20425;-66
2022/12/04 02:23:40;;;;;;;27.73;14.77;;;0.60;99.90;;;;;;4992701;28;20406;-67
2022/12/04 02:26:29;;;;;;;30.60;15.52;;;0.60;99.90;;;;;;4993332;28;20050;-66
2022/12/04 02:29:02;;;;;;;24.75;14.15;;;1.80;99.90;;;;;;4990938;28;20048;-66
2022/12/04 02:31:34;;;;;;;25.40;14.13;;;0.80;99.90;;;;;;5007937;28;20068;-65
2022/12/04 02:34:17;;;;;;;24.33;13.55;;;0.60;99.90;;;;;;5022113;28;20047;-65
2022/12/04 02:37:08;;;;;;;25.27;13.75;;;0.60;99.90;;;;;;4994878;28;20129;-66
2022/12/04 02:39:40;;;;;;;26.45;13.77;;;0.60;99.90;;;;;;4999543;28;20061;-66
2022/12/04 02:42:11;;;;;;;25.55;13.68;;;0.60;99.90;;;;;;4996221;28;20072;-66
2022/12/04 02:45:01;;;;;;;27.70;15.05;;;0.70;99.90;;;;;;4996788;28;20077;-66
2022/12/04 02:47:28;;;;;;;28.77;15.23;;;0.60;99.90;;;;;;5007269;28;20054;-66
2022/12/04 02:49:57;;;;;;;31.20;14.90;;;0.60;99.90;;;;;;5012093;28;20071;-66
2022/12/04 02:52:35;;;;;;;26.15;14.27;;;0.60;99.90;;;;;;5025992;28;20533;-66
2022/12/04 02:55:15;;;;;;;27.42;13.93;;;0.60;99.90;;;;;;4995385;28;20206;-66
2022/12/04 02:57:46;;;;;;;27.15;13.70;;;0.60;99.90;;;;;;4996222;28;20109;-68
2022/12/04 03:00:12;;;;;;;28.00;14.35;;;0.60;99.90;;;;;;4996640;28;20050;-66
2022/12/04 03:03:02;;;;;;;29.48;15.23;;;0.60;99.90;;;;;;4995436;28;20054;-67
2022/12/04 03:05:43;;;;;;;27.95;14.73;;;0.50;99.90;;;;;;5008456;28;20038;-67
2022/12/04 03:08:14;;;;;;;27.83;14.77;;;0.50;99.90;;;;;;5053248;28;20059;-67
2022/12/04 03:10:50;;;;;;;29.58;14.95;;;0.60;99.90;;;;;;5023361;28;20046;-66
2022/12/04 03:13:34;;;;;;;27.23;14.73;;;0.60;99.90;;;;;;4998063;28;20093;-66
2022/12/04 03:16:11;;;;;;;28.15;14.25;;;0.60;99.90;;;;;;5005754;28;20788;-67
2022/12/04 03:18:50;;;;;;;29.77;14.57;;;0.60;99.90;;;;;;5008924;28;20119;-66
2022/12/04 03:21:19;;;;;;;31.58;15.38;;;0.60;99.90;;;;;;4997056;28;20034;-67
2022/12/04 03:24:15;;;;;;;31.77;15.90;;;0.60;99.90;;;;;;4998868;28;20058;-66
2022/12/04 03:26:43;;;;;;;26.60;14.60;;;0.60;99.90;;;;;;4996851;28;20054;-66
2022/12/04 03:29:14;;;;;;;27.30;15.15;;;0.60;99.90;;;;;;4995900;28;20046;-66
2022/12/04 03:31:48;;;;;;;24.60;13.48;;;0.80;99.90;;;;;;5083132;28;20065;-67
2022/12/04 03:34:20;;;;;;;28.48;15.50;;;0.60;99.90;;;;;;4996427;28;20062;-67
2022/12/04 03:36:51;;;;;;;26.60;14.18;;;0.60;99.90;;;;;;4995359;28;20076;-66
2022/12/04 03:39:21;;;;;;;24.58;13.23;;;0.60;99.90;;;;;;4997619;28;20042;-67
2022/12/04 03:42:05;;;;;;;26.58;14.02;;;0.60;99.90;;;;;;5028342;28;20054;-67
2022/12/04 03:44:39;;;;;;;28.17;14.10;;;0.50;99.90;;;;;;5021944;28;20053;-66
2022/12/04 03:47:10;;;;;;;29.40;15.00;;;0.50;99.90;;;;;;5069171;28;20434;-67
2022/12/04 03:49:57;;;;;;;25.85;14.20;;;0.50;99.90;;;;;;5003004;28;20051;-67
2022/12/04 03:52:31;;;;;;;27.65;14.00;;;-0.20;99.90;;;;;;5000328;28;20382;-67
2022/12/04 03:55:20;;;;;;;27.95;14.43;;;0.50;99.90;;;;;;4997636;28;20055;-66
2022/12/04 03:57:49;;;;;;;26.98;14.63;;;0.50;99.90;;;;;;5021994;28;20042;-66
2022/12/04 04:00:21;;;;;;;27.60;14.38;;;0.50;99.90;;;;;;5049642;28;20051;-67
2022/12/04 04:02:54;;;;;;;31.42;16.63;;;0.50;99.90;;;;;;4999218;28;20050;-67
2022/12/04 04:05:22;;;;;;;30.27;16.05;;;0.50;99.90;;;;;;5014018;28;20089;-67
2022/12/04 04:08:24;;;;;;;29.40;15.73;;;0.50;99.90;;;;;;5011918;28;20038;-66
2022/12/04 04:10:47;;;;;;;26.27;14.13;;;0.50;99.90;;;;;;4994726;28;20062;-67
2022/12/04 04:24:28;;;;;;;30.50;15.45;;;0.40;99.90;;;;;;4994587;28;20050;-67
2022/12/04 04:26:56;;;;;;;28.80;15.05;;;0.40;99.90;;;;;;4994947;28;20074;-67
2022/12/04 04:29:22;;;;;;;31.27;15.35;;;0.80;99.90;;;;;;5078906;28;20034;-67
2022/12/04 04:32:21;;;;;;;31.73;15.07;;;0.40;99.90;;;;;;5032670;28;20842;-69
2022/12/04 04:35:16;;;;;;;28.40;14.60;;;0.40;99.90;;;;;;4996026;28;20073;-66
2022/12/04 04:38:17;;;;;;;28.20;14.80;;;0.40;99.90;;;;;;4992287;28;20082;-66
2022/12/04 04:40:46;;;;;;;30.75;15.20;;;0.40;99.90;;;;;;5021837;28;20128;-66
2022/12/04 04:43:20;;;;;;;30.35;15.40;;;0.40;99.90;;;;;;5005381;28;20087;-67
2022/12/04 04:45:45;;;;;;;27.30;14.00;;;0.40;99.90;;;;;;4993210;28;20049;-66
2022/12/04 04:48:17;;;;;;;28.50;14.38;;;0.40;99.90;;;;;;4998003;28;20046;-67
2022/12/04 04:50:44;;;;;;;29.60;15.73;;;0.40;99.90;;;;;;5013065;28;20332;-66
2022/12/04 04:53:16;;;;;;;24.77;14.60;;;0.40;99.90;;;;;;4998115;28;20054;-68
2022/12/04 04:55:43;;;;;;;27.67;14.88;;;0.40;99.90;;;;;;4995867;28;20081;-67
2022/12/04 04:58:17;;;;;;;28.02;14.35;;;0.30;99.90;;;;;;5077775;28;20053;-67
2022/12/04 05:01:00;;;;;;;28.38;15.00;;;0.40;99.90;;;;;;4995931;28;20034;-66
2022/12/04 05:03:27;;;;;;;28.85;15.15;;;0.30;99.90;;;;;;5030649;28;20485;-66
2022/12/04 05:05:53;;;;;;;31.92;15.60;;;0.20;99.90;;;;;;5002156;28;20050;-67
2022/12/04 05:08:19;;;;;;;27.52;14.63;;;0.30;99.90;;;;;;4994751;28;20046;-66
2022/12/04 05:10:44;;;;;;;27.98;14.73;;;0.30;99.90;;;;;;5018283;28;20045;-66
2022/12/04 05:13:14;;;;;;;27.88;14.38;;;0.30;99.90;;;;;;5016952;28;20057;-66
2022/12/04 05:15:40;;;;;;;26.77;14.02;;;0.30;99.90;;;;;;5084258;28;20040;-68
2022/12/04 05:18:06;;;;;;;27.83;14.85;;;0.30;99.90;;;;;;5035608;28;20157;-67
2022/12/04 05:20:32;;;;;;;27.33;14.20;;;0.30;99.90;;;;;;4999619;28;20572;-67
2022/12/04 05:22:58;;;;;;;27.20;13.05;;;0.30;99.90;;;;;;5006300;28;20050;-67
2022/12/04 05:25:24;;;;;;;26.38;13.48;;;0.30;99.90;;;;;;5001580;28;20046;-67
2022/12/04 05:27:50;;;;;;;27.52;15.43;;;0.30;99.90;;;;;;5001654;28;20659;-67
2022/12/04 05:30:16;;;;;;;25.55;14.07;;;0.30;99.90;;;;;;5000867;28;20052;-67
2022/12/04 05:32:41;;;;;;;25.15;13.45;;;0.30;99.90;;;;;;5000579;28;20101;-67
2022/12/04 05:35:08;;;;;;;25.90;14.20;;;0.30;99.90;;;;;;5010802;28;20080;-66
2022/12/04 05:37:38;;;;;;;26.75;14.55;;;0.30;99.90;;;;;;4992797;28;20042;-66
2022/12/04 05:40:06;;;;;;;28.10;14.85;;;0.30;99.90;;;;;;4994902;28;20099;-67
2022/12/04 05:42:32;;;;;;;28.55;14.93;;;0.30;99.90;;;;;;4993794;28;20046;-66
2022/12/04 05:44:57;;;;;;;28.10;14.00;;;0.30;99.90;;;;;;5001036;28;20053;-67
2022/12/04 05:47:23;;;;;;;25.20;13.15;;;1.00;99.90;;;;;;4998283;28;20085;-66
2022/12/04 05:49:49;;;;;;;29.00;14.73;;;0.30;99.90;;;;;;4992685;28;20049;-67
2022/12/04 05:52:15;;;;;;;28.88;14.10;;;0.30;99.90;;;;;;5044171;28;20056;-68
2022/12/04 05:54:40;;;;;;;25.13;14.50;;;0.20;99.90;;;;;;5009275;28;20057;-66
2022/12/04 05:57:06;;;;;;;27.02;13.82;;;0.30;99.90;;;;;;4993493;28;20061;-68
2022/12/04 05:59:32;;;;;;;24.70;14.15;;;0.30;99.90;;;;;;4993331;28;20078;-68
2022/12/04 06:01:58;;;;;;;25.23;14.43;;;0.30;99.90;;;;;;4996201;28;20045;-67
2022/12/04 06:04:24;;;;;;;26.35;13.70;;;0.30;99.90;;;;;;5057788;28;20127;-70
2022/12/04 06:06:50;;;;;;;25.08;12.85;;;0.30;99.90;;;;;;5066675;28;20073;-66
2022/12/04 06:09:15;;;;;;;25.40;12.93;;;0.20;99.90;;;;;;4998825;28;20037;-66
2022/12/04 06:11:42;;;;;;;26.00;12.80;;;0.20;99.90;;;;;;5003711;28;20074;-67
2022/12/04 06:14:11;;;;;;;27.52;14.40;;;0.20;99.90;;;;;;5007637;28;20120;-68
2022/12/04 06:16:40;;;;;;;23.80;13.32;;;0.20;99.90;;;;;;4998191;28;20042;-67
2022/12/04 06:19:12;;;;;;;29.13;13.95;;;0.30;99.90;;;;;;4997186;28;20129;-67
2022/12/04 06:21:39;;;;;;;26.92;14.30;;;0.20;99.90;;;;;;4998714;28;20058;-67
2022/12/04 06:24:06;;;;;;;29.15;14.80;;;0.20;99.90;;;;;;4996396;28;20441;-64
2022/12/04 06:26:32;;;;;;;28.13;14.15;;;0.20;99.90;;;;;;4980425;28;20062;-65
2022/12/04 06:28:59;;;;;;;28.02;14.05;;;0.20;99.90;;;;;;5015510;28;20042;-66
2022/12/04 06:31:27;;;;;;;24.23;12.73;;;1.10;99.90;;;;;;5012838;28;20055;-65
2022/12/04 06:33:54;;;;;;;31.17;15.73;;;0.20;99.90;;;;;;4997991;28;20098;-66
2022/12/04 06:36:20;;;;;;;28.98;14.50;;;0.20;99.90;;;;;;5013947;28;20487;-64
2022/12/04 06:38:48;;;;;;;26.70;14.02;;;0.20;99.90;;;;;;5033237;28;20149;-65
2022/12/04 06:41:15;;;;;;;28.30;14.45;;;0.10;99.90;;;;;;5026168;28;20046;-65
2022/12/04 06:43:41;;;;;;;26.45;13.68;;;0.20;99.90;;;;;;5006309;28;20409;-65
2022/12/04 06:46:15;;;;;;;29.00;14.43;;;0.20;99.90;;;;;;5018378;28;20046;-67
2022/12/04 06:48:41;;;;;;;27.23;14.57;;;0.20;99.90;;;;;;4988892;28;20054;-68
2022/12/04 06:51:11;;;;;;;25.88;13.75;;;0.20;99.90;;;;;;5001769;28;20046;-67
2022/12/04 06:53:37;;;;;;;28.30;13.80;;;0.10;99.90;;;;;;5093505;28;20517;-68
2022/12/04 06:56:05;;;;;;;29.52;14.68;;;0.10;99.90;;;;;;5013459;28;20098;-68
2022/12/04 06:58:31;;;;;;;30.58;14.98;;;0.10;99.90;;;;;;5013910;28;20460;-67
2022/12/04 07:00:57;;;;;;;27.50;14.35;;;0.10;99.90;;;;;;5022018;28;20539;-68
2022/12/04 07:03:24;;;;;;;27.30;13.05;;;0.10;99.90;;;;;;5012271;28;20041;-68
2022/12/04 07:05:49;;;;;;;27.63;14.77;;;0.20;99.90;;;;;;5004112;28;20038;-69
2022/12/04 07:08:15;;;;;;;28.63;15.30;;;0.20;99.90;;;;;;5066638;28;20035;-67
2022/12/04 07:10:41;;;;;;;28.10;13.80;;;0.20;99.90;;;;;;5080753;28;20132;-67
2022/12/04 07:13:08;;;;;;;27.85;14.60;;;0.20;99.90;;;;;;5075351;28;20076;-68
2022/12/04 07:15:35;;;;;;;28.92;14.77;;;0.20;99.90;;;;;;5033969;28;20533;-68
2022/12/04 07:18:01;;;;;;;27.77;14.90;;;0.20;99.90;;;;;;5014579;28;20065;-67
2022/12/04 07:20:27;;;;;;;28.30;14.25;;;0.20;99.90;;;;;;4995981;28;20461;-67
2022/12/04 07:22:53;;;;;;;31.90;15.93;;;0.20;99.90;;;;;;5080553;28;20075;-68
2022/12/04 07:25:18;;;;;;;26.42;13.80;;;0.20;99.90;;;;;;4997312;28;20089;-67
2022/12/04 07:27:44;;;;;;;27.88;15.25;;;0.20;99.90;;;;;;4994913;28;20488;-68
2022/12/04 07:30:10;;;;;;;28.25;14.70;;;0.20;99.90;;;;;;4997809;28;20395;-69
2022/12/04 07:32:36;;;;;;;26.65;13.77;;;0.20;99.90;;;;;;4997202;28;20050;-69
2022/12/04 07:35:03;;;;;;;29.27;15.18;;;0.50;99.90;;;;;;5002098;28;20112;-68
2022/12/04 07:37:29;;;;;;;25.63;13.63;;;0.20;99.90;;;;;;4995948;28;20082;-68
2022/12/04 07:39:55;;;;;;;28.15;14.40;;;0.20;99.90;;;;;;5012984;28;20057;-68
2022/12/04 07:42:20;;;;;;;30.40;14.93;;;0.20;99.90;;;;;;4978830;28;20046;-67
2022/12/04 07:44:46;;;;;;;29.10;13.98;;;0.20;99.90;;;;;;4996123;28;20110;-68
2022/12/04 07:47:12;;;;;;;30.88;14.63;;;0.20;99.90;;;;;;5002482;28;20030;-67
2022/12/04 07:49:38;;;;;;;25.27;13.77;;;0.20;99.90;;;;;;4998350;28;20039;-69
2022/12/04 07:52:05;;;;;;;28.00;15.15;;;0.20;99.90;;;;;;4997554;28;20092;-69
2022/12/04 07:54:31;;;;;;;31.42;16.30;;;0.30;99.90;;;;;;5079169;28;20070;-68
2022/12/04 07:56:57;;;;;;;27.75;14.57;;;0.30;99.90;;;;;;5009396;28;20069;-68
2022/12/04 07:59:25;;;;;;;30.27;15.68;;;0.30;99.90;;;;;;5002576;28;20038;-68
2022/12/04 08:01:51;;;;;;;30.67;14.63;;;0.30;99.90;;;;;;4978938;28;20097;-67
2022/12/04 08:04:17;;;;;;;28.65;13.63;;;0.30;99.90;;;;;;4996920;28;20046;-67
2022/12/04 08:06:42;;;;;;;31.90;15.05;;;0.30;99.90;;;;;;4993242;28;20636;-68
2022/12/04 08:09:08;;;;;;;29.75;15.30;;;0.30;99.90;;;;;;4996933;28;20104;-69
2022/12/04 08:11:34;;;;;;;25.55;13.82;;;0.30;99.90;;;;;;5027472;28;20042;-68
2022/12/04 08:14:02;;;;;;;28.80;14.77;;;0.30;99.90;;;;;;5004118;28;20045;-67
2022/12/04 08:16:29;;;;;;;30.58;14.35;;;0.30;99.90;;;;;;4998971;28;20069;-66
2022/12/04 08:18:56;;;;;;;27.63;14.25;;;0.40;99.90;;;;;;4994922;28;20065;-67
2022/12/04 08:21:24;;;;;;;29.55;15.10;;;0.40;99.90;;;;;;5080178;28;20050;-67
2022/12/04 08:23:52;;;;;;;29.02;15.15;;;0.40;99.90;;;;;;4994816;28;20066;-68
2022/12/04 08:26:20;;;;;;;27.90;14.77;;;0.40;99.90;;;;;;4998242;28;20046;-67
2022/12/04 08:28:46;;;;;;;27.40;14.70;;;0.40;99.90;;;;;;5051120;28;20053;-67
2022/12/04 08:31:18;;;;;;;29.08;15.05;;;0.40;99.90;;;;;;5080503;28;20106;-68
2022/12/04 08:33:45;;;;;;;30.30;14.75;;;0.40;99.90;;;;;;4994529;28;20076;-66
2022/12/04 08:36:13;;;;;;;28.05;14.82;;;0.40;99.90;;;;;;5024878;28;20049;-68
2022/12/04 08:38:39;;;;;;;28.50;15.45;;;0.50;99.90;;;;;;5080847;28;20058;-68
2022/12/04 08:41:07;;;;;;;27.40;14.63;;;0.50;99.90;;;;;;5079036;28;20042;-67
2022/12/04 08:43:33;;;;;;;29.35;14.73;;;0.50;99.90;;;;;;5005591;28;20078;-67
2022/12/04 08:46:01;;;;;;;28.20;15.18;;;0.50;99.90;;;;;;5000790;28;20053;-67
2022/12/04 08:48:27;;;;;;;25.77;14.10;;;0.50;99.90;;;;;;4994744;28;20072;-67
2022/12/04 08:50:54;;;;;;;32.28;14.27;;;0.60;99.90;;;;;;4995038;28;20034;-67
2022/12/04 08:53:21;;;;;;;27.55;13.20;;;0.50;99.90;;;;;;4995177;28;20059;-66
2022/12/04 08:55:46;;;;;;;32.38;15.38;;;0.60;99.90;;;;;;4996211;28;20045;-67
2022/12/04 08:58:13;;;;;;;29.30;15.20;;;0.60;99.90;;;;;;4994377;28;20038;-68
2022/12/04 09:00:39;;;;;;;28.15;14.32;;;0.60;99.90;;;;;;5003344;28;20052;-68
2022/12/04 09:03:05;;;;;;;28.10;15.38;;;0.70;99.90;;;;;;4994305;28;20042;-67
2022/12/04 09:05:30;;;;;;;29.48;14.38;;;0.70;99.90;;;;;;4986610;28;20604;-67
2022/12/04 09:07:56;;;;;;;28.13;14.98;;;0.60;99.90;;;;;;5003632;28;20074;-67
2022/12/04 09:10:22;;;;;;;31.00;15.98;;;0.70;99.90;;;;;;4994822;28;20502;-66
2022/12/04 09:12:51;;;;;;;27.27;14.82;;;0.70;99.90;;;;;;4995872;28;20050;-67
2022/12/04 09:15:17;;;;;;;28.38;15.35;;;0.70;99.90;;;;;;5080063;28;20075;-67
2022/12/04 09:17:42;;;;;;;26.50;13.95;;;0.70;99.90;;;;;;4994343;28;20137;-67
2022/12/04 09:20:08;;;;;;;28.25;14.05;;;0.70;99.90;;;;;;4993934;28;20053;-68
2022/12/04 09:22:35;;;;;;;29.70;14.80;;;0.80;99.90;;;;;;4991222;28;20506;-67
2022/12/04 09:25:00;;;;;;;26.58;14.57;;;0.80;99.90;;;;;;5075688;28;20042;-67
2022/12/04 09:27:26;;;;;;;34.30;16.60;;;0.80;99.90;;;;;;4994504;28;20112;-67
2022/12/04 09:29:52;;;;;;;29.67;15.35;;;0.80;99.90;;;;;;4997504;28;20390;-67
2022/12/04 09:32:18;;;;;;;27.55;15.05;;;0.80;99.90;;;;;;4996242;28;20043;-66
2022/12/04 09:34:46;;;;;;;31.02;15.80;;;0.80;99.90;;;;;;4997243;28;20087;-67
2022/12/04 09:37:12;;;;;;;25.45;13.73;;;0.80;99.90;;;;;;5000868;28;20100;-67
2022/12/04 09:39:37;;;;;;;30.15;14.88;;;0.90;99.90;;;;;;5003634;28;20046;-67
2022/12/04 09:42:28;;;;;;;29.40;15.25;;;0.90;99.90;;;;;;4993987;28;20080;-67
2022/12/04 09:45:17;;;;;;;25.70;14.02;;;0.90;99.90;;;;;;5002011;28;20071;-67
2022/12/04 09:47:50;;;;;;;26.02;14.13;;;0.90;99.90;;;;;;5000924;28;20060;-67
2022/12/04 09:50:44;;;;;;;27.00;14.18;;;0.90;99.90;;;;;;4994142;28;20058;-67
2022/12/04 09:53:18;;;;;;;26.23;14.25;;;1.20;99.90;;;;;;5003270;28;20053;-67
2022/12/04 09:55:54;;;;;;;26.75;13.57;;;1.00;99.90;;;;;;5004117;28;20057;-67
2022/12/04 09:58:26;;;;;;;26.48;13.75;;;1.00;99.90;;;;;;5001645;28;20050;-67
2022/12/04 10:00:54;;;;;;;28.95;14.02;;;1.00;99.90;;;;;;5001664;28;20055;-67
2022/12/04 10:03:23;;;;;;;25.90;13.95;;;1.00;99.90;;;;;;5002371;28;20371;-67
2022/12/04 10:06:13;;;;;;;27.02;14.05;;;1.00;99.90;;;;;;5001053;28;20049;-67
2022/12/04 10:08:53;;;;;;;26.65;15.40;;;1.00;99.90;;;;;;5000858;28;20050;-68
2022/12/04 10:11:23;;;;;;;24.98;12.75;;;1.10;99.90;;;;;;5000157;28;20054;-67
2022/12/04 10:14:13;;;;;;;23.73;12.38;;;1.10;99.90;;;;;;5005359;28;20042;-68
2022/12/04 10:16:58;;;;;;;25.75;12.70;;;1.10;99.90;;;;;;5000795;28;20042;-65
2022/12/04 10:19:48;;;;;;;23.35;12.15;;;1.10;99.90;;;;;;5002743;28;20046;-67
2022/12/04 10:22:39;;;;;;;27.05;14.20;;;1.20;99.90;;;;;;5004566;28;20046;-67
2022/12/04 10:25:15;;;;;;;23.88;11.73;;;1.30;99.90;;;;;;5018429;28;20126;-68
2022/12/04 10:27:50;;;;;;;24.17;12.32;;;1.30;99.90;;;;;;5001187;28;20054;-68
2022/12/04 10:30:28;;;;;;;24.17;12.15;;;1.20;99.90;;;;;;5017445;28;20050;-68
2022/12/04 10:33:04;;;;;;;19.83;11.65;;;1.30;99.90;;;;;;5009680;28;20060;-67
2022/12/04 10:35:32;;;;;;;21.65;12.35;;;1.30;99.90;;;;;;5002657;28;20066;-69
2022/12/04 10:38:04;;;;;;;23.02;12.40;;;1.70;99.90;;;;;;5004803;28;20046;-67
2022/12/04 10:40:40;;;;;;;22.95;11.45;;;1.40;99.90;;;;;;5002414;28;20104;-67
2022/12/04 10:43:24;;;;;;;;;;;1.40;99.90;;;;;;5004549;28;20497;-67
2022/12/04 10:45:51;;;;;;;20.65;10.90;;;1.40;99.90;;;;;;4997853;28;19952;-68
2022/12/04 10:48:25;;;;;;;20.02;11.20;;;1.50;99.90;;;;;;5005874;28;20042;-68
2022/12/04 10:50:51;;;;;;;18.30;9.85;;;1.50;99.90;;;;;;5006047;28;20061;-67
2022/12/04 10:53:20;;;;;;;19.52;11.13;;;1.50;99.90;;;;;;5011084;28;20034;-69
2022/12/04 10:55:46;;;;;;;20.48;11.18;;;1.60;99.90;;;;;;5014735;28;20071;-67
2022/12/04 10:58:19;;;;;;;19.00;9.80;;;1.60;99.90;;;;;;5015185;28;20041;-67
2022/12/04 11:01:04;;;;;;;19.10;11.27;;;1.60;99.90;;;;;;5012653;28;20053;-67
2022/12/04 11:03:30;;;;;;;21.67;11.27;;;1.60;99.90;;;;;;5016994;28;20043;-69
2022/12/04 11:06:01;;;;;;;19.38;10.73;;;1.70;99.90;;;;;;5004773;28;20046;-67
2022/12/04 11:08:40;;;;;;;18.35;10.20;;;1.70;99.90;;;;;;5001889;28;20074;-67
2022/12/04 11:11:10;;;;;;;21.00;11.65;;;1.70;99.90;;;;;;5006136;28;20127;-69
2022/12/04 11:13:36;;;;;;;17.48;9.70;;;1.70;99.90;;;;;;4994950;28;20555;-68
2022/12/04 11:16:03;;;;;;;18.83;10.18;;;1.70;99.90;;;;;;5001929;28;20030;-67
2022/12/04 11:18:31;;;;;;;19.65;11.35;;;1.80;99.90;;;;;;5010867;28;20136;-68
2022/12/04 11:21:03;;;;;;;17.55;9.40;;;1.80;99.90;;;;;;5014740;28;20050;-67
2022/12/04 11:23:33;;;;;;;17.73;10.50;;;1.80;99.90;;;;;;5015576;28;20116;-68
2022/12/04 11:26:00;;;;;;;16.73;9.80;;;1.80;99.90;;;;;;5006070;28;20050;-68
2022/12/04 11:28:29;;;;;;;14.95;8.75;;;1.80;99.90;;;;;;5004574;28;20133;-67
2022/12/04 11:30:58;;;;;;;18.35;9.85;;;1.90;99.90;;;;;;5003822;28;20042;-68
2022/12/04 11:33:31;;;;;;;17.35;10.13;;;1.90;99.90;;;;;;5004867;28;20033;-68
2022/12/04 11:36:02;;;;;;;17.00;9.20;;;1.90;99.90;;;;;;5004295;28;20046;-69
2022/12/04 11:38:30;;;;;;;15.27;9.25;;;1.90;99.90;;;;;;5004707;28;20042;-69
2022/12/04 11:40:57;;;;;;;16.67;9.48;;;1.90;99.90;;;;;;5002200;28;20046;-68
2022/12/04 11:43:27;;;;;;;18.52;9.60;;;1.90;99.90;;;;;;5003026;28;20046;-69
2022/12/04 11:45:58;;;;;;;19.38;9.82;;;1.90;99.90;;;;;;5010123;28;20042;-69
2022/12/04 11:48:25;;;;;;;17.88;10.05;;;1.90;99.90;;;;;;5004915;28;20072;-70
2022/12/04 11:51:22;;;;;;;16.25;8.93;;;1.90;99.90;;;;;;5002355;28;20068;-69
2022/12/04 11:54:05;;;;;;;16.98;9.82;;;1.90;99.90;;;;;;5010312;28;20046;-68
2022/12/04 11:56:41;;;;;;;16.15;9.20;;;1.90;99.90;;;;;;5000429;28;20050;-68
2022/12/04 11:59:07;;;;;;;15.18;8.80;;;1.90;99.90;;;;;;5003361;28;20034;-69
2022/12/04 12:01:55;;;;;;;17.42;8.70;;;2.10;99.90;;;;;;5003181;28;20609;-68
2022/12/04 12:04:56;;;;;;;16.88;9.07;;;2.10;99.90;;;;;;5006815;28;20082;-68
2022/12/04 12:07:48;;;;;;;15.88;9.38;;;1.90;99.90;;;;;;4996646;28;20554;-67
2022/12/04 12:10:41;;;;;;;17.85;9.52;;;1.90;99.90;;;;;;5008107;28;20091;-68
2022/12/04 12:13:38;;;;;;;16.13;9.23;;;1.90;99.90;;;;;;5022196;28;20046;-69
2022/12/04 12:16:11;;;;;;;18.27;9.93;;;2.00;99.90;;;;;;5004101;28;20056;-68
2022/12/04 12:19:07;;;;;;;16.30;8.77;;;1.90;99.90;;;;;;5003094;28;20058;-69
2022/12/04 12:21:38;;;;;;;16.80;9.25;;;2.00;99.90;;;;;;5003758;28;20129;-68
2022/12/04 12:24:28;;;;;;;19.33;9.10;;;2.00;99.90;;;;;;5011415;28;20129;-67
2022/12/04 12:27:02;;;;;;;18.15;10.45;;;2.00;99.90;;;;;;5015590;28;20438;-67
2022/12/04 12:29:46;;;;;;;17.05;8.65;;;1.20;99.90;;;;;;5009032;28;20053;-68
2022/12/04 12:32:35;;;;;;;15.70;8.82;;;2.00;99.90;;;;;;5014055;28;20052;-68
2022/12/04 12:35:03;;;;;;;17.00;9.23;;;2.00;99.90;;;;;;5015837;28;20106;-69
2022/12/04 12:37:52;;;;;;;16.80;9.10;;;2.00;99.90;;;;;;5015831;28;20092;-67
2022/12/04 12:40:29;;;;;;;14.95;8.75;;;2.00;99.90;;;;;;5012677;28;20039;-67
2022/12/04 12:43:00;;;;;;;16.92;9.27;;;2.00;99.90;;;;;;5003279;28;20063;-68
2022/12/04 12:45:31;;;;;;;16.02;9.05;;;2.00;99.90;;;;;;5004477;28;20046;-68
2022/12/04 12:48:05;;;;;;;17.10;9.40;;;2.00;99.90;;;;;;4996072;28;20050;-67
2022/12/04 12:50:50;;;;;;;17.35;8.80;;;2.10;99.90;;;;;;4994772;28;20543;-68
2022/12/04 12:53:22;;;;;;;16.20;9.13;;;2.10;99.90;;;;;;4992572;28;20047;-67
2022/12/04 12:55:54;;;;;;;17.00;8.38;;;2.00;99.90;;;;;;4968531;28;20399;-68
2022/12/04 12:58:31;;;;;;;19.02;9.75;;;2.10;99.90;;;;;;5054097;28;20476;-68
2022/12/04 13:01:23;;;;;;;15.45;8.55;;;2.00;99.90;;;;;;5085723;28;20053;-68
2022/12/04 13:03:52;;;;;;;18.58;9.07;;;2.00;99.90;;;;;;5033854;28;20205;-67
2022/12/04 13:06:25;;;;;;;17.35;9.90;;;2.20;99.90;;;;;;5016212;28;20045;-69
2022/12/04 13:09:11;;;;;;;15.27;8.60;;;2.00;99.90;;;;;;5014328;28;20447;-70
2022/12/04 13:11:39;;;;;;;16.65;9.05;;;2.00;99.90;;;;;;5098949;28;20044;-69